Al Khuwair — C6VM6 — position and weather

sailwx.info

Track history (hours):
 
Tides and Currents Weather Stations Pressure Air Temp Water Temp Dewpoint Dewpoint Depression Visibility Wind Speed Wind Dir Waves Ship Positions

Al Khuwair

Last reported at 2017-Jul-23 23:11 UTC. Time now 2017-Jul-24 04:48 UTC.
Position N 34°22' E 022°31'.

Length 315 m; draft 12 m.

Type: Ship (hazmat cat A). MMSI: 311000140.

Date/timePositionNaut miles runAvg speedWind from/ knotsBaromVisibWave heightAir tempDewpointWater temp
2017-Jul-23 23:11N 34°22' E 022°31'417.5
2017-Jul-23 22:57N 34°21' E 022°35'817.5
2017-Jul-23 22:30N 34°19' E 022°45'37517.8
2017-Jul-23 01:28N 32°28' E 029°54'917.9
2017-Jul-23 00:58N 32°26' E 030°04'5717.9
2017-Jul-22 21:47N 32°08' E 031°08'517.9
2017-Jul-22 21:30N 32°07' E 031°14'1817.7
2017-Jul-22 20:29N 32°01' E 031°34'1917.4
2017-Jul-22 19:25N 31°49' E 031°52'717.3
2017-Jul-22 19:00N 31°46' E 031°59'3315.1
2017-Jul-22 16:49N 31°20' E 032°23'  
Track history (hours):
 
Tides and Currents Weather Stations Pressure Air Temp Water Temp Dewpoint Dewpoint Depression Visibility Wind Speed Wind Dir Waves Ship Positions

Al Khuwair

Last reported at 2017-Jul-23 23:11 UTC. Time now 2017-Jul-24 04:48 UTC.
Position N 34°22' E 022°31'.

Length 315 m; draft 12 m.

Type: Ship (hazmat cat A). MMSI: 311000140.

Date/timePositionNaut miles runAvg speedWind from/ knotsBaromVisibWave heightAir tempDewpointWater temp
2017-Jul-23 23:11N 34°22' E 022°31'417.5
2017-Jul-23 22:57N 34°21' E 022°35'817.5
2017-Jul-23 22:30N 34°19' E 022°45'37517.8
2017-Jul-23 01:28N 32°28' E 029°54'917.9
2017-Jul-23 00:58N 32°26' E 030°04'5717.9
2017-Jul-22 21:47N 32°08' E 031°08'517.9
2017-Jul-22 21:30N 32°07' E 031°14'1817.7
2017-Jul-22 20:29N 32°01' E 031°34'1917.4
2017-Jul-22 19:25N 31°49' E 031°52'717.3
2017-Jul-22 19:00N 31°46' E 031°59'3315.1
2017-Jul-22 16:49N 31°20' E 032°23'  

Dump ship's entire track history